sensor_id;sensor_type;location;lat;lon;timestamp;pressure;altitude;pressure_sealevel;temperature;humidity
39949;BME280;29070;48.102;-1.652;2022-10-24T00:01:42;100121.75;;;15.42;78.79
39949;BME280;29070;48.102;-1.652;2022-10-24T00:06:42;100157.47;;;15.45;78.89
39949;BME280;29070;48.102;-1.652;2022-10-24T00:11:43;100155.88;;;15.44;79.40
39949;BME280;29070;48.102;-1.652;2022-10-24T00:16:43;100181.84;;;15.47;80.04
39949;BME280;29070;48.102;-1.652;2022-10-24T00:21:44;100196.44;;;15.50;80.02
39949;BME280;29070;48.102;-1.652;2022-10-24T00:26:44;100202.84;;;15.54;80.27
39949;BME280;29070;48.102;-1.652;2022-10-24T00:31:45;100203.66;;;15.54;80.19
39949;BME280;29070;48.102;-1.652;2022-10-24T00:36:45;100220.25;;;15.50;80.45
39949;BME280;29070;48.102;-1.652;2022-10-24T00:41:46;100230.16;;;15.42;80.53
39949;BME280;29070;48.102;-1.652;2022-10-24T00:46:50;100244.09;;;15.38;80.30
39949;BME280;29070;48.102;-1.652;2022-10-24T00:51:53;100244.50;;;15.30;80.37
39949;BME280;29070;48.102;-1.652;2022-10-24T00:57:02;100260.28;;;15.24;80.21
39949;BME280;29070;48.102;-1.652;2022-10-24T01:02:04;100271.72;;;15.13;80.17
39949;BME280;29070;48.102;-1.652;2022-10-24T01:23:35;100253.91;;;15.09;80.49
39949;BME280;29070;48.102;-1.652;2022-10-24T01:34:14;100267.34;;;15.07;80.61
39949;BME280;29070;48.102;-1.652;2022-10-24T01:39:18;100263.13;;;15.06;80.56
39949;BME280;29070;48.102;-1.652;2022-10-24T01:44:27;100275.75;;;15.04;80.66
39949;BME280;29070;48.102;-1.652;2022-10-24T01:49:34;100257.72;;;15.01;80.97
39949;BME280;29070;48.102;-1.652;2022-10-24T01:54:37;100259.31;;;15.02;81.07
39949;BME280;29070;48.102;-1.652;2022-10-24T01:59:41;100279.09;;;14.99;81.11
39949;BME280;29070;48.102;-1.652;2022-10-24T02:05:15;100285.09;;;14.95;81.36
39949;BME280;29070;48.102;-1.652;2022-10-24T02:10:25;100303.25;;;14.91;81.22
39949;BME280;29070;48.102;-1.652;2022-10-24T02:15:30;100295.53;;;14.90;81.14
39949;BME280;29070;48.102;-1.652;2022-10-24T02:20:36;100279.22;;;14.93;81.10
39949;BME280;29070;48.102;-1.652;2022-10-24T02:25:41;100289.69;;;14.87;81.17
39949;BME280;29070;48.102;-1.652;2022-10-24T02:30:47;100293.50;;;14.80;81.09
39949;BME280;29070;48.102;-1.652;2022-10-24T02:35:49;100292.06;;;14.72;82.00
39949;BME280;29070;48.102;-1.652;2022-10-24T02:40:50;100291.22;;;14.72;81.33
39949;BME280;29070;48.102;-1.652;2022-10-24T02:45:52;100283.28;;;14.72;81.26
39949;BME280;29070;48.102;-1.652;2022-10-24T02:50:54;100283.53;;;14.70;81.30
39949;BME280;29070;48.102;-1.652;2022-10-24T02:55:54;100290.09;;;14.67;81.39
39949;BME280;29070;48.102;-1.652;2022-10-24T03:00:55;100301.00;;;14.71;81.57
39949;BME280;29070;48.102;-1.652;2022-10-24T03:05:55;100310.88;;;14.76;81.66
39949;BME280;29070;48.102;-1.652;2022-10-24T03:10:56;100305.81;;;14.74;81.79
39949;BME280;29070;48.102;-1.652;2022-10-24T03:15:56;100306.94;;;14.78;81.99
39949;BME280;29070;48.102;-1.652;2022-10-24T03:20:57;100303.41;;;14.84;82.35
39949;BME280;29070;48.102;-1.652;2022-10-24T03:25:57;100312.47;;;14.89;82.53
39949;BME280;29070;48.102;-1.652;2022-10-24T03:30:58;100312.00;;;14.92;82.44
39949;BME280;29070;48.102;-1.652;2022-10-24T03:35:58;100317.75;;;14.89;82.33
39949;BME280;29070;48.102;-1.652;2022-10-24T03:40:59;100322.47;;;14.86;82.57
39949;BME280;29070;48.102;-1.652;2022-10-24T03:45:59;100329.91;;;14.90;82.66
39949;BME280;29070;48.102;-1.652;2022-10-24T03:51:00;100330.22;;;14.93;82.78
39949;BME280;29070;48.102;-1.652;2022-10-24T03:56:00;100334.28;;;14.96;82.85
39949;BME280;29070;48.102;-1.652;2022-10-24T04:01:01;100348.06;;;14.98;82.71
39949;BME280;29070;48.102;-1.652;2022-10-24T04:06:01;100350.47;;;14.99;82.91
39949;BME280;29070;48.102;-1.652;2022-10-24T04:11:02;100346.53;;;15.02;82.93
39949;BME280;29070;48.102;-1.652;2022-10-24T04:16:02;100352.88;;;15.01;82.70
39949;BME280;29070;48.102;-1.652;2022-10-24T04:21:03;100365.03;;;15.02;82.81
39949;BME280;29070;48.102;-1.652;2022-10-24T04:26:03;100358.97;;;15.01;82.67
39949;BME280;29070;48.102;-1.652;2022-10-24T04:31:04;100365.03;;;15.02;82.92
39949;BME280;29070;48.102;-1.652;2022-10-24T04:36:05;100354.47;;;15.02;82.98
39949;BME280;29070;48.102;-1.652;2022-10-24T04:41:05;100352.88;;;15.01;83.03
39949;BME280;29070;48.102;-1.652;2022-10-24T04:46:06;100355.28;;;15.02;82.96
39949;BME280;29070;48.102;-1.652;2022-10-24T04:51:06;100355.53;;;15.01;82.90
39949;BME280;29070;48.102;-1.652;2022-10-24T04:56:07;100361.84;;;15.00;83.02
39949;BME280;29070;48.102;-1.652;2022-10-24T05:01:07;100371.59;;;14.99;83.37
39949;BME280;29070;48.102;-1.652;2022-10-24T05:06:08;100377.69;;;15.00;83.18
39949;BME280;29070;48.102;-1.652;2022-10-24T05:11:09;100377.22;;;15.03;83.38
39949;BME280;29070;48.102;-1.652;2022-10-24T05:16:10;100378.81;;;15.04;83.34
39949;BME280;29070;48.102;-1.652;2022-10-24T05:21:11;100379.50;;;15.11;83.57
39949;BME280;29070;48.102;-1.652;2022-10-24T05:26:11;100391.13;;;15.10;83.38
39949;BME280;29070;48.102;-1.652;2022-10-24T05:31:11;100389.28;;;15.11;83.47
39949;BME280;29070;48.102;-1.652;2022-10-24T05:36:12;100385.59;;;15.12;83.63
39949;BME280;29070;48.102;-1.652;2022-10-24T05:41:12;100394.22;;;15.07;83.40
39949;BME280;29070;48.102;-1.652;2022-10-24T05:46:12;100400.56;;;15.06;83.48
39949;BME280;29070;48.102;-1.652;2022-10-24T05:51:13;100404.81;;;15.07;83.58
39949;BME280;29070;48.102;-1.652;2022-10-24T05:56:13;100404.81;;;15.07;83.72
39949;BME280;29070;48.102;-1.652;2022-10-24T06:01:14;100407.44;;;15.07;83.60
39949;BME280;29070;48.102;-1.652;2022-10-24T06:06:14;100410.78;;;15.02;83.78
39949;BME280;29070;48.102;-1.652;2022-10-24T06:11:14;100411.03;;;15.01;83.57
39949;BME280;29070;48.102;-1.652;2022-10-24T06:16:15;100417.22;;;14.95;83.58
39949;BME280;29070;48.102;-1.652;2022-10-24T06:21:16;100417.94;;;14.90;83.43
39949;BME280;29070;48.102;-1.652;2022-10-24T06:26:17;100424.22;;;14.89;83.65
39949;BME280;29070;48.102;-1.652;2022-10-24T06:31:18;100430.78;;;14.86;83.61
39949;BME280;29070;48.102;-1.652;2022-10-24T06:36:19;100435.50;;;14.84;83.78
39949;BME280;29070;48.102;-1.652;2022-10-24T06:41:20;100442.50;;;14.79;83.65
39949;BME280;29070;48.102;-1.652;2022-10-24T06:46:21;100447.56;;;14.80;83.57
39949;BME280;29070;48.102;-1.652;2022-10-24T06:51:22;100444.34;;;14.78;83.74
39949;BME280;29070;48.102;-1.652;2022-10-24T06:56:23;100466.28;;;14.79;83.84
39949;BME280;29070;48.102;-1.652;2022-10-24T07:01:25;100473.41;;;14.78;83.96
39949;BME280;29070;48.102;-1.652;2022-10-24T07:06:28;100475.03;;;14.79;83.89
39949;BME280;29070;48.102;-1.652;2022-10-24T07:11:28;100481.91;;;14.80;84.13
39949;BME280;29070;48.102;-1.652;2022-10-24T07:16:29;100472.16;;;14.81;84.19
39949;BME280;29070;48.102;-1.652;2022-10-24T07:21:31;100490.19;;;14.84;84.20
39949;BME280;29070;48.102;-1.652;2022-10-24T07:26:31;100499.59;;;14.80;84.12
39949;BME280;29070;48.102;-1.652;2022-10-24T07:31:33;100506.75;;;14.79;84.04
39949;BME280;29070;48.102;-1.652;2022-10-24T07:36:34;100520.53;;;14.81;84.10
39949;BME280;29070;48.102;-1.652;2022-10-24T07:41:36;100515.34;;;14.86;84.35
39949;BME280;29070;48.102;-1.652;2022-10-24T07:46:41;100535.13;;;14.96;84.40
39949;BME280;29070;48.102;-1.652;2022-10-24T07:51:41;100550.41;;;15.05;84.57
39949;BME280;29070;48.102;-1.652;2022-10-24T07:56:42;100557.78;;;15.15;84.65
39949;BME280;29070;48.102;-1.652;2022-10-24T08:01:42;100551.56;;;15.21;84.57
39949;BME280;29070;48.102;-1.652;2022-10-24T08:06:42;100558.59;;;15.28;84.78
39949;BME280;29070;48.102;-1.652;2022-10-24T08:11:43;100576.28;;;15.39;84.61
39949;BME280;29070;48.102;-1.652;2022-10-24T08:16:44;100583.56;;;15.43;84.63
39949;BME280;29070;48.102;-1.652;2022-10-24T08:21:44;100590.78;;;15.48;84.56
39949;BME280;29070;48.102;-1.652;2022-10-24T08:26:45;100586.75;;;15.57;84.52
39949;BME280;29070;48.102;-1.652;2022-10-24T08:31:50;100582.84;;;15.60;84.42
39949;BME280;29070;48.102;-1.652;2022-10-24T08:36:50;100584.56;;;15.66;84.50
39949;BME280;29070;48.102;-1.652;2022-10-24T08:41:57;100583.31;;;15.69;84.54
39949;BME280;29070;48.102;-1.652;2022-10-24T08:52:22;100602.06;;;15.79;84.26
39949;BME280;29070;48.102;-1.652;2022-10-24T08:57:24;100603.22;;;15.83;84.33
39949;BME280;29070;48.102;-1.652;2022-10-24T09:02:27;100621.25;;;15.98;84.24
39949;BME280;29070;48.102;-1.652;2022-10-24T09:07:30;100613.88;;;16.12;84.21
39949;BME280;29070;48.102;-1.652;2022-10-24T09:12:32;100614.16;;;16.27;83.98
39949;BME280;29070;48.102;-1.652;2022-10-24T09:17:34;100619.13;;;16.52;84.08
39949;BME280;29070;48.102;-1.652;2022-10-24T09:22:36;100612.56;;;16.84;84.58
39949;BME280;29070;48.102;-1.652;2022-10-24T09:27:38;100625.13;;;17.05;84.10
39949;BME280;29070;48.102;-1.652;2022-10-24T09:32:40;100625.44;;;17.09;82.70
39949;BME280;29070;48.102;-1.652;2022-10-24T09:37:45;100620.69;;;17.11;82.55
39949;BME280;29070;48.102;-1.652;2022-10-24T09:48:01;100624.78;;;17.19;81.85
39949;BME280;29070;48.102;-1.652;2022-10-24T09:53:03;100631.47;;;17.04;81.09
39949;BME280;29070;48.102;-1.652;2022-10-24T09:58:03;100636.63;;;16.94;81.04
39949;BME280;29070;48.102;-1.652;2022-10-24T10:03:18;100634.22;;;16.81;80.47
39949;BME280;29070;48.102;-1.652;2022-10-24T10:13:21;100662.16;;;16.71;80.30
39949;BME280;29070;48.102;-1.652;2022-10-24T10:18:34;100650.25;;;16.74;80.64
39949;BME280;29070;48.102;-1.652;2022-10-24T10:23:52;100657.16;;;16.87;80.69
39949;BME280;29070;48.102;-1.652;2022-10-24T10:29:08;100656.63;;;17.02;80.59
39949;BME280;29070;48.102;-1.652;2022-10-24T10:34:40;100654.44;;;16.99;79.62
39949;BME280;29070;48.102;-1.652;2022-10-24T10:45:38;100683.00;;;16.80;79.60
39949;BME280;29070;48.102;-1.652;2022-10-24T10:50:45;100695.09;;;16.75;79.71
39949;BME280;29070;48.102;-1.652;2022-10-24T11:12:11;100701.94;;;16.59;79.79
39949;BME280;29070;48.102;-1.652;2022-10-24T11:17:23;100706.53;;;16.64;79.94
39949;BME280;29070;48.102;-1.652;2022-10-24T11:22:32;100716.13;;;16.65;79.82
39949;BME280;29070;48.102;-1.652;2022-10-24T11:27:39;100714.38;;;16.71;80.08
39949;BME280;29070;48.102;-1.652;2022-10-24T11:32:58;100709.63;;;16.85;80.16
39949;BME280;29070;48.102;-1.652;2022-10-24T11:38:07;100706.91;;;16.96;80.06
39949;BME280;29070;48.102;-1.652;2022-10-24T11:43:32;100692.44;;;17.04;79.80
39949;BME280;29070;48.102;-1.652;2022-10-24T11:48:44;100705.66;;;17.16;79.60
39949;BME280;29070;48.102;-1.652;2022-10-24T11:53:50;100707.94;;;17.24;79.64
39949;BME280;29070;48.102;-1.652;2022-10-24T11:58:59;100708.59;;;17.48;79.45
39949;BME280;29070;48.102;-1.652;2022-10-24T12:20:24;100707.44;;;18.12;77.85
39949;BME280;29070;48.102;-1.652;2022-10-24T12:25:37;100720.56;;;18.02;77.30
39949;BME280;29070;48.102;-1.652;2022-10-24T12:30:38;100709.38;;;17.83;77.04
39949;BME280;29070;48.102;-1.652;2022-10-24T12:40:50;100709.06;;;17.96;77.66
39949;BME280;29070;48.102;-1.652;2022-10-24T12:45:51;100711.59;;;18.08;77.46
39949;BME280;29070;48.102;-1.652;2022-10-24T12:51:03;100714.25;;;18.08;76.94
39949;BME280;29070;48.102;-1.652;2022-10-24T12:56:13;100717.97;;;18.07;76.67
39949;BME280;29070;48.102;-1.652;2022-10-24T13:22:32;100736.25;;;17.86;74.19
39949;BME280;29070;48.102;-1.652;2022-10-24T13:27:34;100735.94;;;18.00;75.10
39949;BME280;29070;48.102;-1.652;2022-10-24T13:32:34;100736.09;;;18.10;74.83
39949;BME280;29070;48.102;-1.652;2022-10-24T13:37:43;100735.19;;;18.21;74.30
39949;BME280;29070;48.102;-1.652;2022-10-24T13:42:56;100733.63;;;18.25;73.90
39949;BME280;29070;48.102;-1.652;2022-10-24T13:48:05;100733.78;;;18.36;74.29
39949;BME280;29070;48.102;-1.652;2022-10-24T13:53:14;100730.50;;;18.51;74.00
39949;BME280;29070;48.102;-1.652;2022-10-24T13:58:20;100739.22;;;18.46;73.06
39949;BME280;29070;48.102;-1.652;2022-10-24T14:03:22;100733.28;;;18.39;73.00
39949;BME280;29070;48.102;-1.652;2022-10-24T14:08:33;100737.19;;;18.14;71.83
39949;BME280;29070;48.102;-1.652;2022-10-24T14:13:42;100744.38;;;17.97;72.15
39949;BME280;29070;48.102;-1.652;2022-10-24T14:18:44;100751.72;;;18.06;72.55
39949;BME280;29070;48.102;-1.652;2022-10-24T14:23:55;100746.28;;;18.18;71.08
39949;BME280;29070;48.102;-1.652;2022-10-24T14:28:57;100752.47;;;18.24;71.58
39949;BME280;29070;48.102;-1.652;2022-10-24T14:34:01;100759.72;;;18.28;71.73
39949;BME280;29070;48.102;-1.652;2022-10-24T14:39:05;100766.13;;;18.33;71.58
39949;BME280;29070;48.102;-1.652;2022-10-24T14:44:06;100767.28;;;18.20;70.95
39949;BME280;29070;48.102;-1.652;2022-10-24T14:49:25;100771.81;;;18.02;70.10
39949;BME280;29070;48.102;-1.652;2022-10-24T14:54:32;100772.66;;;18.03;70.76
39949;BME280;29070;48.102;-1.652;2022-10-24T14:59:36;100783.91;;;18.10;70.86
39949;BME280;29070;48.102;-1.652;2022-10-24T15:04:40;100785.34;;;18.18;70.95
39949;BME280;29070;48.102;-1.652;2022-10-24T15:09:53;100783.41;;;18.13;69.67
39949;BME280;29070;48.102;-1.652;2022-10-24T15:14:58;100791.28;;;18.08;70.11
39949;BME280;29070;48.102;-1.652;2022-10-24T15:20:00;100806.09;;;18.04;70.09
39949;BME280;29070;48.102;-1.652;2022-10-24T15:25:07;100814.75;;;17.94;69.62
39949;BME280;29070;48.102;-1.652;2022-10-24T15:30:18;100814.66;;;17.89;69.58
39949;BME280;29070;48.102;-1.652;2022-10-24T15:35:19;100809.47;;;17.82;69.64
39949;BME280;29070;48.102;-1.652;2022-10-24T15:40:26;100815.97;;;17.75;69.82
39949;BME280;29070;48.102;-1.652;2022-10-24T15:45:27;100834.38;;;17.64;69.70
39949;BME280;29070;48.102;-1.652;2022-10-24T15:50:27;100841.69;;;17.57;69.82
39949;BME280;29070;48.102;-1.652;2022-10-24T15:55:29;100839.91;;;17.46;69.87
39949;BME280;29070;48.102;-1.652;2022-10-24T16:00:31;100847.44;;;17.37;69.87
39949;BME280;29070;48.102;-1.652;2022-10-24T16:05:37;100845.25;;;17.34;69.98
39949;BME280;29070;48.102;-1.652;2022-10-24T16:10:38;100866.16;;;17.30;70.17
39949;BME280;29070;48.102;-1.652;2022-10-24T16:15:39;100852.31;;;17.28;70.19
39949;BME280;29070;48.102;-1.652;2022-10-24T16:20:41;100863.50;;;17.19;70.13
39949;BME280;29070;48.102;-1.652;2022-10-24T16:25:42;100869.44;;;17.09;70.08
39949;BME280;29070;48.102;-1.652;2022-10-24T16:30:43;100882.34;;;17.05;70.13
39949;BME280;29070;48.102;-1.652;2022-10-24T16:35:44;100885.03;;;16.93;70.15
39949;BME280;29070;48.102;-1.652;2022-10-24T16:40:46;100889.75;;;16.80;70.30
39949;BME280;29070;48.102;-1.652;2022-10-24T16:45:59;100891.59;;;16.67;70.43
39949;BME280;29070;48.102;-1.652;2022-10-24T16:51:00;100901.03;;;16.63;70.50
39949;BME280;29070;48.102;-1.652;2022-10-24T16:56:00;100908.53;;;16.54;70.95
39949;BME280;29070;48.102;-1.652;2022-10-24T17:01:06;100905.44;;;16.46;70.95
39949;BME280;29070;48.102;-1.652;2022-10-24T17:06:07;100917.50;;;16.42;71.31
39949;BME280;29070;48.102;-1.652;2022-10-24T17:11:08;100918.41;;;16.35;71.36
39949;BME280;29070;48.102;-1.652;2022-10-24T17:16:10;100926.56;;;16.22;71.66
39949;BME280;29070;48.102;-1.652;2022-10-24T17:21:10;100939.22;;;16.20;71.91
39949;BME280;29070;48.102;-1.652;2022-10-24T17:26:17;100931.41;;;16.13;72.26
39949;BME280;29070;48.102;-1.652;2022-10-24T17:31:17;100950.03;;;16.07;72.22
39949;BME280;29070;48.102;-1.652;2022-10-24T17:36:22;100947.81;;;16.04;72.30
39949;BME280;29070;48.102;-1.652;2022-10-24T17:41:26;100955.28;;;15.95;72.59
39949;BME280;29070;48.102;-1.652;2022-10-24T17:46:28;100962.50;;;15.88;72.79
39949;BME280;29070;48.102;-1.652;2022-10-24T17:51:29;100966.25;;;15.80;73.07
39949;BME280;29070;48.102;-1.652;2022-10-24T17:56:36;100983.63;;;15.76;73.11
39949;BME280;29070;48.102;-1.652;2022-10-24T18:01:36;100985.53;;;15.69;73.50
39949;BME280;29070;48.102;-1.652;2022-10-24T18:06:37;100988.59;;;15.66;73.45
39949;BME280;29070;48.102;-1.652;2022-10-24T18:11:37;100998.03;;;15.61;73.73
39949;BME280;29070;48.102;-1.652;2022-10-24T18:16:39;100997.72;;;15.51;73.91
39949;BME280;29070;48.102;-1.652;2022-10-24T18:21:39;101004.94;;;15.44;73.94
39949;BME280;29070;48.102;-1.652;2022-10-24T18:26:39;101000.06;;;15.41;74.17
39949;BME280;29070;48.102;-1.652;2022-10-24T18:31:40;101004.63;;;15.34;74.21
39949;BME280;29070;48.102;-1.652;2022-10-24T18:36:40;101004.69;;;15.27;74.53
39949;BME280;29070;48.102;-1.652;2022-10-24T18:41:49;101012.69;;;15.20;74.75
39949;BME280;29070;48.102;-1.652;2022-10-24T18:46:53;101011.13;;;15.13;74.74
39949;BME280;29070;48.102;-1.652;2022-10-24T19:07:25;101025.97;;;14.89;75.86
39949;BME280;29070;48.102;-1.652;2022-10-24T19:12:26;101029.06;;;14.85;76.23
39949;BME280;29070;48.102;-1.652;2022-10-24T19:17:27;101039.44;;;14.80;76.29
39949;BME280;29070;48.102;-1.652;2022-10-24T19:22:27;101038.06;;;14.78;76.48
39949;BME280;29070;48.102;-1.652;2022-10-24T19:27:30;101046.84;;;14.72;76.77
39949;BME280;29070;48.102;-1.652;2022-10-24T19:32:31;101050.13;;;14.67;76.95
39949;BME280;29070;48.102;-1.652;2022-10-24T19:37:31;101054.19;;;14.63;77.18
39949;BME280;29070;48.102;-1.652;2022-10-24T19:42:32;101055.25;;;14.62;77.23
39949;BME280;29070;48.102;-1.652;2022-10-24T19:47:33;101055.03;;;14.57;77.31
39949;BME280;29070;48.102;-1.652;2022-10-24T19:52:34;101058.53;;;14.51;77.57
39949;BME280;29070;48.102;-1.652;2022-10-24T19:57:34;101069.09;;;14.51;77.86
39949;BME280;29070;48.102;-1.652;2022-10-24T20:02:34;101064.44;;;14.46;77.93
39949;BME280;29070;48.102;-1.652;2022-10-24T20:07:34;101076.25;;;14.43;77.97
39949;BME280;29070;48.102;-1.652;2022-10-24T20:12:35;101077.88;;;14.44;78.27
39949;BME280;29070;48.102;-1.652;2022-10-24T20:17:35;101084.59;;;14.40;78.11
39949;BME280;29070;48.102;-1.652;2022-10-24T20:22:36;101088.69;;;14.36;78.08
39949;BME280;29070;48.102;-1.652;2022-10-24T20:27:37;101096.00;;;14.34;78.29
39949;BME280;29070;48.102;-1.652;2022-10-24T20:32:37;101093.19;;;14.29;78.67
39949;BME280;29070;48.102;-1.652;2022-10-24T20:37:38;101099.88;;;14.25;78.66
39949;BME280;29070;48.102;-1.652;2022-10-24T20:42:39;101108.03;;;14.23;78.76
39949;BME280;29070;48.102;-1.652;2022-10-24T20:47:39;101118.19;;;14.20;78.93
39949;BME280;29070;48.102;-1.652;2022-10-24T20:52:40;101120.22;;;14.18;79.12
39949;BME280;29070;48.102;-1.652;2022-10-24T20:57:41;101119.44;;;14.17;79.93
39949;BME280;29070;48.102;-1.652;2022-10-24T21:02:42;101126.34;;;14.11;79.28
39949;BME280;29070;48.102;-1.652;2022-10-24T21:07:42;101132.44;;;14.05;79.25
39949;BME280;29070;48.102;-1.652;2022-10-24T21:12:43;101125.56;;;13.98;79.26
39949;BME280;29070;48.102;-1.652;2022-10-24T21:17:43;101137.78;;;13.92;79.59
39949;BME280;29070;48.102;-1.652;2022-10-24T21:22:43;101141.84;;;13.88;79.64
39949;BME280;29070;48.102;-1.652;2022-10-24T21:27:44;101146.50;;;13.86;79.66
39949;BME280;29070;48.102;-1.652;2022-10-24T21:32:44;101147.34;;;13.80;79.56
39949;BME280;29070;48.102;-1.652;2022-10-24T21:37:45;101156.88;;;13.74;79.42
39949;BME280;29070;48.102;-1.652;2022-10-24T21:42:45;101163.16;;;13.66;79.63
39949;BME280;29070;48.102;-1.652;2022-10-24T21:47:45;101156.69;;;13.62;79.51
39949;BME280;29070;48.102;-1.652;2022-10-24T21:52:46;101162.38;;;13.52;79.54
39949;BME280;29070;48.102;-1.652;2022-10-24T21:57:46;101169.88;;;13.49;79.85
39949;BME280;29070;48.102;-1.652;2022-10-24T22:02:46;101180.44;;;13.49;80.20
39949;BME280;29070;48.102;-1.652;2022-10-24T22:07:47;101182.03;;;13.50;80.34
39949;BME280;29070;48.102;-1.652;2022-10-24T22:12:47;101187.72;;;13.53;80.64
39949;BME280;29070;48.102;-1.652;2022-10-24T22:17:48;101185.50;;;13.57;80.86
39949;BME280;29070;48.102;-1.652;2022-10-24T22:22:50;101184.91;;;13.62;80.98
39949;BME280;29070;48.102;-1.652;2022-10-24T22:27:51;101194.22;;;13.64;81.41
39949;BME280;29070;48.102;-1.652;2022-10-24T22:32:51;101192.81;;;13.68;81.53
39949;BME280;29070;48.102;-1.652;2022-10-24T22:37:52;101196.25;;;13.69;81.63
39949;BME280;29070;48.102;-1.652;2022-10-24T22:42:53;101196.25;;;13.69;81.88
39949;BME280;29070;48.102;-1.652;2022-10-24T22:48:04;101196.06;;;13.70;82.10
39949;BME280;29070;48.102;-1.652;2022-10-24T22:53:13;101191.59;;;13.71;83.21
39949;BME280;29070;48.102;-1.652;2022-10-24T22:58:14;101201.13;;;13.72;82.13
39949;BME280;29070;48.102;-1.652;2022-10-24T23:03:20;101203.78;;;13.72;82.21
39949;BME280;29070;48.102;-1.652;2022-10-24T23:08:30;101196.25;;;13.76;82.50
39949;BME280;29070;48.102;-1.652;2022-10-24T23:13:32;101201.53;;;13.76;82.77
39949;BME280;29070;48.102;-1.652;2022-10-24T23:18:32;101203.16;;;13.77;82.84
39949;BME280;29070;48.102;-1.652;2022-10-24T23:23:33;101210.06;;;13.78;82.99
39949;BME280;29070;48.102;-1.652;2022-10-24T23:29:17;101211.66;;;13.79;83.08
39949;BME280;29070;48.102;-1.652;2022-10-24T23:34:20;101218.56;;;13.80;83.10
39949;BME280;29070;48.102;-1.652;2022-10-24T23:39:20;101224.06;;;13.78;83.34
39949;BME280;29070;48.102;-1.652;2022-10-24T23:44:22;101227.50;;;13.79;83.30
39949;BME280;29070;48.102;-1.652;2022-10-24T23:49:35;101220.22;;;13.81;83.39
39949;BME280;29070;48.102;-1.652;2022-10-24T23:54:39;101231.16;;;13.78;83.57
39949;BME280;29070;48.102;-1.652;2022-10-24T23:59:39;101225.88;;;13.78;83.69
